sensor_id;sensor_type;location;lat;lon;timestamp;temperature;humidity
16289;DHT22;26089;43.538;5.250;2023-02-11T00:00:38;1.80;99.90
16289;DHT22;26089;43.538;5.250;2023-02-11T00:03:06;1.80;99.90
16289;DHT22;26089;43.538;5.250;2023-02-11T00:05:33;1.80;99.90
16289;DHT22;26089;43.538;5.250;2023-02-11T00:08:00;1.80;99.90
16289;DHT22;26089;43.538;5.250;2023-02-11T00:10:27;1.40;99.90
16289;DHT22;26089;43.538;5.250;2023-02-11T00:12:55;1.70;99.90
16289;DHT22;26089;43.538;5.250;2023-02-11T00:15:22;1.20;99.90
16289;DHT22;26089;43.538;5.250;2023-02-11T00:17:49;1.70;99.90
16289;DHT22;26089;43.538;5.250;2023-02-11T00:20:17;1.50;99.90
16289;DHT22;26089;43.538;5.250;2023-02-11T00:22:44;1.60;99.90
16289;DHT22;26089;43.538;5.250;2023-02-11T00:25:11;0.70;99.90
16289;DHT22;26089;43.538;5.250;2023-02-11T00:27:38;1.60;99.90
16289;DHT22;26089;43.538;5.250;2023-02-11T00:30:07;1.50;99.90
16289;DHT22;26089;43.538;5.250;2023-02-11T00:32:34;0.70;99.90
16289;DHT22;26089;43.538;5.250;2023-02-11T00:35:01;1.50;99.90
16289;DHT22;26089;43.538;5.250;2023-02-11T00:37:28;1.90;99.90
16289;DHT22;26089;43.538;5.250;2023-02-11T00:39:55;1.50;99.90
16289;DHT22;26089;43.538;5.250;2023-02-11T00:42:22;1.20;99.90
16289;DHT22;26089;43.538;5.250;2023-02-11T00:44:49;2.20;99.90
16289;DHT22;26089;43.538;5.250;2023-02-11T00:47:17;1.60;99.90
16289;DHT22;26089;43.538;5.250;2023-02-11T00:49:44;1.60;99.90
16289;DHT22;26089;43.538;5.250;2023-02-11T00:52:11;1.60;99.90
16289;DHT22;26089;43.538;5.250;2023-02-11T00:54:38;1.50;99.90
16289;DHT22;26089;43.538;5.250;2023-02-11T00:57:05;1.50;99.90
16289;DHT22;26089;43.538;5.250;2023-02-11T00:59:32;1.10;99.90
16289;DHT22;26089;43.538;5.250;2023-02-11T01:01:59;0.90;99.90
16289;DHT22;26089;43.538;5.250;2023-02-11T01:04:28;1.40;99.90
16289;DHT22;26089;43.538;5.250;2023-02-11T01:06:55;1.50;99.90
16289;DHT22;26089;43.538;5.250;2023-02-11T01:09:22;1.40;99.90
16289;DHT22;26089;43.538;5.250;2023-02-11T01:11:49;1.80;99.90
16289;DHT22;26089;43.538;5.250;2023-02-11T01:14:16;1.40;99.90
16289;DHT22;26089;43.538;5.250;2023-02-11T01:16:43;1.50;99.90
16289;DHT22;26089;43.538;5.250;2023-02-11T01:19:10;1.40;99.90
16289;DHT22;26089;43.538;5.250;2023-02-11T01:21:38;1.40;99.90
16289;DHT22;26089;43.538;5.250;2023-02-11T01:24:05;1.30;99.90
16289;DHT22;26089;43.538;5.250;2023-02-11T01:26:33;1.30;99.90
16289;DHT22;26089;43.538;5.250;2023-02-11T01:29:00;1.30;99.90
16289;DHT22;26089;43.538;5.250;2023-02-11T01:31:27;1.30;99.90
16289;DHT22;26089;43.538;5.250;2023-02-11T01:33:54;1.20;99.90
16289;DHT22;26089;43.538;5.250;2023-02-11T01:36:21;1.20;99.90
16289;DHT22;26089;43.538;5.250;2023-02-11T01:38:49;0.30;99.90
16289;DHT22;26089;43.538;5.250;2023-02-11T01:41:16;1.10;99.90
16289;DHT22;26089;43.538;5.250;2023-02-11T01:43:45;1.00;99.90
16289;DHT22;26089;43.538;5.250;2023-02-11T01:46:30;0.70;99.90
16289;DHT22;26089;43.538;5.250;2023-02-11T01:49:02;2.10;99.90
16289;DHT22;26089;43.538;5.250;2023-02-11T01:51:33;1.00;99.90
16289;DHT22;26089;43.538;5.250;2023-02-11T01:54:03;1.30;99.90
16289;DHT22;26089;43.538;5.250;2023-02-11T01:56:51;1.10;99.90
16289;DHT22;26089;43.538;5.250;2023-02-11T01:59:40;1.00;99.90
16289;DHT22;26089;43.538;5.250;2023-02-11T02:02:11;0.90;99.90
16289;DHT22;26089;43.538;5.250;2023-02-11T02:04:43;0.70;99.90
16289;DHT22;26089;43.538;5.250;2023-02-11T02:07:18;0.90;99.90
16289;DHT22;26089;43.538;5.250;2023-02-11T02:09:54;1.90;99.90
16289;DHT22;26089;43.538;5.250;2023-02-11T02:12:21;1.00;99.90
16289;DHT22;26089;43.538;5.250;2023-02-11T02:14:48;1.20;99.90
16289;DHT22;26089;43.538;5.250;2023-02-11T02:17:23;0.80;99.90
16289;DHT22;26089;43.538;5.250;2023-02-11T02:20:15;0.40;99.90
16289;DHT22;26089;43.538;5.250;2023-02-11T02:23:11;0.90;99.90
16289;DHT22;26089;43.538;5.250;2023-02-11T02:26:03;0.80;99.90
16289;DHT22;26089;43.538;5.250;2023-02-11T02:29:05;0.80;99.90
16289;DHT22;26089;43.538;5.250;2023-02-11T02:31:49;0.90;99.90
16289;DHT22;26089;43.538;5.250;2023-02-11T02:34:26;0.90;99.90
16289;DHT22;26089;43.538;5.250;2023-02-11T02:36:59;1.20;99.90
16289;DHT22;26089;43.538;5.250;2023-02-11T02:39:32;0.90;99.90
16289;DHT22;26089;43.538;5.250;2023-02-11T02:42:01;0.40;99.90
16289;DHT22;26089;43.538;5.250;2023-02-11T02:44:28;-0.30;99.90
16289;DHT22;26089;43.538;5.250;2023-02-11T02:46:55;0.90;99.90
16289;DHT22;26089;43.538;5.250;2023-02-11T02:49:24;0.90;99.90
16289;DHT22;26089;43.538;5.250;2023-02-11T02:52:21;0.90;99.90
16289;DHT22;26089;43.538;5.250;2023-02-11T02:55:15;0.90;99.90
16289;DHT22;26089;43.538;5.250;2023-02-11T02:58:10;0.90;99.90
16289;DHT22;26089;43.538;5.250;2023-02-11T03:00:44;0.80;99.90
16289;DHT22;26089;43.538;5.250;2023-02-11T03:03:22;0.80;99.90
16289;DHT22;26089;43.538;5.250;2023-02-11T03:05:55;1.00;99.90
16289;DHT22;26089;43.538;5.250;2023-02-11T03:08:28;1.40;99.90
16289;DHT22;26089;43.538;5.250;2023-02-11T03:10:58;0.80;99.90
16289;DHT22;26089;43.538;5.250;2023-02-11T03:13:30;0.90;99.90
16289;DHT22;26089;43.538;5.250;2023-02-11T03:16:01;0.90;99.90
16289;DHT22;26089;43.538;5.250;2023-02-11T03:18:31;0.90;99.90
16289;DHT22;26089;43.538;5.250;2023-02-11T03:21:04;0.80;99.90
16289;DHT22;26089;43.538;5.250;2023-02-11T03:23:35;0.80;99.90
16289;DHT22;26089;43.538;5.250;2023-02-11T03:26:08;0.70;99.90
16289;DHT22;26089;43.538;5.250;2023-02-11T03:28:43;1.10;99.90
16289;DHT22;26089;43.538;5.250;2023-02-11T03:31:16;0.80;99.90
16289;DHT22;26089;43.538;5.250;2023-02-11T03:33:50;1.60;99.90
16289;DHT22;26089;43.538;5.250;2023-02-11T03:36:25;0.80;99.90
16289;DHT22;26089;43.538;5.250;2023-02-11T03:38:55;0.80;99.90
16289;DHT22;26089;43.538;5.250;2023-02-11T03:41:23;0.80;99.90
16289;DHT22;26089;43.538;5.250;2023-02-11T03:43:53;0.70;99.90
16289;DHT22;26089;43.538;5.250;2023-02-11T03:46:26;1.10;99.90
16289;DHT22;26089;43.538;5.250;2023-02-11T03:48:57;0.70;99.90
16289;DHT22;26089;43.538;5.250;2023-02-11T03:51:28;0.70;99.90
16289;DHT22;26089;43.538;5.250;2023-02-11T03:53:59;0.30;99.90
16289;DHT22;26089;43.538;5.250;2023-02-11T03:56:30;0.90;99.90
16289;DHT22;26089;43.538;5.250;2023-02-11T03:58:58;-0.10;99.90
16289;DHT22;26089;43.538;5.250;2023-02-11T04:01:25;0.40;99.90
16289;DHT22;26089;43.538;5.250;2023-02-11T04:03:52;0.50;99.90
16289;DHT22;26089;43.538;5.250;2023-02-11T04:06:19;1.70;99.90
16289;DHT22;26089;43.538;5.250;2023-02-11T04:08:47;1.40;99.90
16289;DHT22;26089;43.538;5.250;2023-02-11T04:11:14;0.50;99.90
16289;DHT22;26089;43.538;5.250;2023-02-11T04:13:41;0.50;99.90
16289;DHT22;26089;43.538;5.250;2023-02-11T04:16:08;0.60;99.90
16289;DHT22;26089;43.538;5.250;2023-02-11T04:18:35;0.50;99.90
16289;DHT22;26089;43.538;5.250;2023-02-11T04:21:02;1.00;99.90
16289;DHT22;26089;43.538;5.250;2023-02-11T04:23:29;0.50;99.90
16289;DHT22;26089;43.538;5.250;2023-02-11T04:25:57;0.90;99.90
16289;DHT22;26089;43.538;5.250;2023-02-11T04:28:24;0.60;99.90
16289;DHT22;26089;43.538;5.250;2023-02-11T04:30:54;0.60;99.90
16289;DHT22;26089;43.538;5.250;2023-02-11T04:33:21;0.40;99.90
16289;DHT22;26089;43.538;5.250;2023-02-11T04:35:48;1.90;99.90
16289;DHT22;26089;43.538;5.250;2023-02-11T04:38:16;-0.10;99.90
16289;DHT22;26089;43.538;5.250;2023-02-11T04:40:43;0.50;99.90
16289;DHT22;26089;43.538;5.250;2023-02-11T04:43:11;0.50;99.90
16289;DHT22;26089;43.538;5.250;2023-02-11T04:45:38;0.50;99.90
16289;DHT22;26089;43.538;5.250;2023-02-11T04:48:05;0.50;99.90
16289;DHT22;26089;43.538;5.250;2023-02-11T04:50:32;0.50;99.90
16289;DHT22;26089;43.538;5.250;2023-02-11T04:52:59;0.40;99.90
16289;DHT22;26089;43.538;5.250;2023-02-11T04:55:26;0.40;99.90
16289;DHT22;26089;43.538;5.250;2023-02-11T04:57:53;0.40;99.90
16289;DHT22;26089;43.538;5.250;2023-02-11T05:00:22;0.50;99.90
16289;DHT22;26089;43.538;5.250;2023-02-11T05:02:49;1.20;99.90
16289;DHT22;26089;43.538;5.250;2023-02-11T05:05:16;0.20;99.90
16289;DHT22;26089;43.538;5.250;2023-02-11T05:07:43;-0.40;99.90
16289;DHT22;26089;43.538;5.250;2023-02-11T05:10:10;0.30;99.90
16289;DHT22;26089;43.538;5.250;2023-02-11T05:12:37;0.30;99.90
16289;DHT22;26089;43.538;5.250;2023-02-11T05:15:05;0.30;99.90
16289;DHT22;26089;43.538;5.250;2023-02-11T05:17:33;0.30;99.90
16289;DHT22;26089;43.538;5.250;2023-02-11T05:20:00;0.30;99.90
16289;DHT22;26089;43.538;5.250;2023-02-11T05:22:27;0.30;99.90
16289;DHT22;26089;43.538;5.250;2023-02-11T05:24:54;0.30;99.90
16289;DHT22;26089;43.538;5.250;2023-02-11T05:27:21;0.40;99.90
16289;DHT22;26089;43.538;5.250;2023-02-11T05:29:48;0.00;99.90
16289;DHT22;26089;43.538;5.250;2023-02-11T05:32:15;0.40;99.90
16289;DHT22;26089;43.538;5.250;2023-02-11T05:34:44;0.40;99.90
16289;DHT22;26089;43.538;5.250;2023-02-11T05:37:11;0.40;99.90
16289;DHT22;26089;43.538;5.250;2023-02-11T05:39:38;0.40;99.90
16289;DHT22;26089;43.538;5.250;2023-02-11T05:42:05;0.40;99.90
16289;DHT22;26089;43.538;5.250;2023-02-11T05:44:32;0.70;99.90
16289;DHT22;26089;43.538;5.250;2023-02-11T05:46:59;0.50;99.90
16289;DHT22;26089;43.538;5.250;2023-02-11T05:49:26;0.50;99.90
16289;DHT22;26089;43.538;5.250;2023-02-11T05:51:54;0.40;99.90
16289;DHT22;26089;43.538;5.250;2023-02-11T05:54:21;0.40;99.90
16289;DHT22;26089;43.538;5.250;2023-02-11T05:56:48;0.50;99.90
16289;DHT22;26089;43.538;5.250;2023-02-11T05:59:15;0.60;99.90
16289;DHT22;26089;43.538;5.250;2023-02-11T06:01:43;0.60;99.90
16289;DHT22;26089;43.538;5.250;2023-02-11T06:04:10;0.60;99.90
16289;DHT22;26089;43.538;5.250;2023-02-11T06:06:37;0.80;99.90
16289;DHT22;26089;43.538;5.250;2023-02-11T06:09:05;0.50;99.90
16289;DHT22;26089;43.538;5.250;2023-02-11T06:11:32;0.10;99.90
16289;DHT22;26089;43.538;5.250;2023-02-11T06:14:00;0.50;99.90
16289;DHT22;26089;43.538;5.250;2023-02-11T06:16:27;0.60;99.90
16289;DHT22;26089;43.538;5.250;2023-02-11T06:18:54;0.60;99.90
16289;DHT22;26089;43.538;5.250;2023-02-11T06:21:21;1.10;99.90
16289;DHT22;26089;43.538;5.250;2023-02-11T06:23:48;0.60;99.90
16289;DHT22;26089;43.538;5.250;2023-02-11T06:26:19;-0.60;99.90
16289;DHT22;26089;43.538;5.250;2023-02-11T06:28:46;0.60;99.90
16289;DHT22;26089;43.538;5.250;2023-02-11T06:31:14;0.50;99.90
16289;DHT22;26089;43.538;5.250;2023-02-11T06:33:42;0.60;99.90
16289;DHT22;26089;43.538;5.250;2023-02-11T06:36:12;0.80;99.90
16289;DHT22;26089;43.538;5.250;2023-02-11T06:38:40;0.60;99.90
16289;DHT22;26089;43.538;5.250;2023-02-11T06:41:09;0.60;99.90
16289;DHT22;26089;43.538;5.250;2023-02-11T06:43:39;0.50;99.90
16289;DHT22;26089;43.538;5.250;2023-02-11T06:46:06;1.20;99.90
16289;DHT22;26089;43.538;5.250;2023-02-11T06:48:34;0.40;99.90
16289;DHT22;26089;43.538;5.250;2023-02-11T06:51:02;0.50;99.90
16289;DHT22;26089;43.538;5.250;2023-02-11T06:53:30;0.50;99.90
16289;DHT22;26089;43.538;5.250;2023-02-11T06:56:01;0.30;99.90
16289;DHT22;26089;43.538;5.250;2023-02-11T06:58:28;0.60;99.90
16289;DHT22;26089;43.538;5.250;2023-02-11T07:00:57;0.40;99.90
16289;DHT22;26089;43.538;5.250;2023-02-11T07:03:24;1.20;99.90
16289;DHT22;26089;43.538;5.250;2023-02-11T07:05:51;-0.50;99.90
16289;DHT22;26089;43.538;5.250;2023-02-11T07:08:18;0.40;99.90
16289;DHT22;26089;43.538;5.250;2023-02-11T07:10:45;0.30;99.90
16289;DHT22;26089;43.538;5.250;2023-02-11T07:13:12;0.40;99.90
16289;DHT22;26089;43.538;5.250;2023-02-11T07:15:39;0.60;99.90
16289;DHT22;26089;43.538;5.250;2023-02-11T07:18:07;0.60;99.90
16289;DHT22;26089;43.538;5.250;2023-02-11T07:20:36;0.70;99.90
16289;DHT22;26089;43.538;5.250;2023-02-11T07:23:03;0.70;99.90
16289;DHT22;26089;43.538;5.250;2023-02-11T07:25:30;0.80;99.90
16289;DHT22;26089;43.538;5.250;2023-02-11T07:27:57;1.20;99.90
16289;DHT22;26089;43.538;5.250;2023-02-11T07:30:24;0.70;99.90
16289;DHT22;26089;43.538;5.250;2023-02-11T07:32:51;1.10;99.90
16289;DHT22;26089;43.538;5.250;2023-02-11T07:35:19;1.20;99.90
16289;DHT22;26089;43.538;5.250;2023-02-11T07:37:46;2.20;99.90
16289;DHT22;26089;43.538;5.250;2023-02-11T07:40:13;1.30;99.90
16289;DHT22;26089;43.538;5.250;2023-02-11T07:42:40;1.40;99.90
16289;DHT22;26089;43.538;5.250;2023-02-11T07:45:08;1.50;99.90
16289;DHT22;26089;43.538;5.250;2023-02-11T07:47:35;1.60;99.90
16289;DHT22;26089;43.538;5.250;2023-02-11T07:50:03;1.90;99.90
16289;DHT22;26089;43.538;5.250;2023-02-11T07:52:32;1.80;99.90
16289;DHT22;26089;43.538;5.250;2023-02-11T07:54:59;2.00;99.90
16289;DHT22;26089;43.538;5.250;2023-02-11T07:57:27;2.60;99.90
16289;DHT22;26089;43.538;5.250;2023-02-11T07:59:54;1.80;99.90
16289;DHT22;26089;43.538;5.250;2023-02-11T08:02:21;2.60;99.90
16289;DHT22;26089;43.538;5.250;2023-02-11T08:04:48;2.90;99.90
16289;DHT22;26089;43.538;5.250;2023-02-11T08:07:15;2.90;99.90
16289;DHT22;26089;43.538;5.250;2023-02-11T08:09:44;3.40;99.90
16289;DHT22;26089;43.538;5.250;2023-02-11T08:12:11;3.60;99.90
16289;DHT22;26089;43.538;5.250;2023-02-11T08:14:38;3.80;99.90
16289;DHT22;26089;43.538;5.250;2023-02-11T08:17:05;4.20;99.90
16289;DHT22;26089;43.538;5.250;2023-02-11T08:19:32;4.80;99.90
16289;DHT22;26089;43.538;5.250;2023-02-11T08:21:59;5.40;99.90
16289;DHT22;26089;43.538;5.250;2023-02-11T08:24:26;5.90;99.90
16289;DHT22;26089;43.538;5.250;2023-02-11T08:26:54;6.10;99.90
16289;DHT22;26089;43.538;5.250;2023-02-11T08:29:21;7.30;99.90
16289;DHT22;26089;43.538;5.250;2023-02-11T08:31:49;8.00;99.90
16289;DHT22;26089;43.538;5.250;2023-02-11T08:34:16;8.90;99.90
16289;DHT22;26089;43.538;5.250;2023-02-11T08:36:45;9.80;99.90
16289;DHT22;26089;43.538;5.250;2023-02-11T08:39:14;10.20;99.90
16289;DHT22;26089;43.538;5.250;2023-02-11T08:41:42;10.80;99.90
16289;DHT22;26089;43.538;5.250;2023-02-11T08:44:10;11.60;99.90
16289;DHT22;26089;43.538;5.250;2023-02-11T08:46:37;11.80;99.90
16289;DHT22;26089;43.538;5.250;2023-02-11T08:49:04;12.40;99.90
16289;DHT22;26089;43.538;5.250;2023-02-11T08:51:32;12.90;99.90
16289;DHT22;26089;43.538;5.250;2023-02-11T08:53:59;12.80;99.90
16289;DHT22;26089;43.538;5.250;2023-02-11T08:56:27;12.70;99.90
16289;DHT22;26089;43.538;5.250;2023-02-11T08:58:56;12.60;99.90
16289;DHT22;26089;43.538;5.250;2023-02-11T09:01:26;12.00;99.90
16289;DHT22;26089;43.538;5.250;2023-02-11T09:03:54;11.00;99.90
16289;DHT22;26089;43.538;5.250;2023-02-11T09:06:22;10.10;99.90
16289;DHT22;26089;43.538;5.250;2023-02-11T09:08:50;9.40;99.90
16289;DHT22;26089;43.538;5.250;2023-02-11T09:11:20;8.70;99.90
16289;DHT22;26089;43.538;5.250;2023-02-11T09:13:47;8.30;99.90
16289;DHT22;26089;43.538;5.250;2023-02-11T09:16:16;8.10;99.90
16289;DHT22;26089;43.538;5.250;2023-02-11T09:18:45;7.90;99.90
16289;DHT22;26089;43.538;5.250;2023-02-11T09:21:13;7.90;99.90
16289;DHT22;26089;43.538;5.250;2023-02-11T09:23:41;7.80;99.90
16289;DHT22;26089;43.538;5.250;2023-02-11T09:26:12;8.10;99.90
16289;DHT22;26089;43.538;5.250;2023-02-11T09:28:40;7.90;99.90
16289;DHT22;26089;43.538;5.250;2023-02-11T09:31:07;8.00;99.90
16289;DHT22;26089;43.538;5.250;2023-02-11T09:33:35;8.10;99.90
16289;DHT22;26089;43.538;5.250;2023-02-11T09:36:05;8.20;99.90
16289;DHT22;26089;43.538;5.250;2023-02-11T09:38:32;8.30;99.90
16289;DHT22;26089;43.538;5.250;2023-02-11T09:40:59;8.50;99.90
16289;DHT22;26089;43.538;5.250;2023-02-11T09:43:34;8.20;99.90
16289;DHT22;26089;43.538;5.250;2023-02-11T09:46:03;8.50;99.90
16289;DHT22;26089;43.538;5.250;2023-02-11T09:48:38;8.80;99.90
16289;DHT22;26089;43.538;5.250;2023-02-11T09:51:17;9.60;99.90
16289;DHT22;26089;43.538;5.250;2023-02-11T09:53:48;9.10;99.90
16289;DHT22;26089;43.538;5.250;2023-02-11T09:56:16;9.30;99.90
16289;DHT22;26089;43.538;5.250;2023-02-11T09:58:44;9.40;99.90
16289;DHT22;26089;43.538;5.250;2023-02-11T10:01:15;9.50;99.90
16289;DHT22;26089;43.538;5.250;2023-02-11T10:03:58;9.70;99.90
16289;DHT22;26089;43.538;5.250;2023-02-11T10:06:42;9.90;99.90
16289;DHT22;26089;43.538;5.250;2023-02-11T10:09:31;10.10;99.90
16289;DHT22;26089;43.538;5.250;2023-02-11T10:12:16;10.20;99.90
16289;DHT22;26089;43.538;5.250;2023-02-11T10:15:12;10.40;99.90
16289;DHT22;26089;43.538;5.250;2023-02-11T10:17:46;10.50;99.90
16289;DHT22;26089;43.538;5.250;2023-02-11T10:20:24;10.60;99.90
16289;DHT22;26089;43.538;5.250;2023-02-11T10:22:58;10.60;99.90
16289;DHT22;26089;43.538;5.250;2023-02-11T10:25:28;10.70;99.90
16289;DHT22;26089;43.538;5.250;2023-02-11T10:28:00;10.90;99.90
16289;DHT22;26089;43.538;5.250;2023-02-11T10:30:40;11.00;99.90
16289;DHT22;26089;43.538;5.250;2023-02-11T10:33:14;11.10;99.90
16289;DHT22;26089;43.538;5.250;2023-02-11T10:35:43;11.20;99.90
16289;DHT22;26089;43.538;5.250;2023-02-11T10:38:12;11.30;99.90
16289;DHT22;26089;43.538;5.250;2023-02-11T10:40:39;11.40;99.90
16289;DHT22;26089;43.538;5.250;2023-02-11T10:43:09;11.40;99.90
16289;DHT22;26089;43.538;5.250;2023-02-11T10:45:41;11.40;99.90
16289;DHT22;26089;43.538;5.250;2023-02-11T10:48:37;11.10;99.90
16289;DHT22;26089;43.538;5.250;2023-02-11T10:51:17;11.10;99.90
16289;DHT22;26089;43.538;5.250;2023-02-11T10:53:47;11.20;99.90
16289;DHT22;26089;43.538;5.250;2023-02-11T10:56:22;11.20;99.90
16289;DHT22;26089;43.538;5.250;2023-02-11T10:58:58;11.40;99.90
16289;DHT22;26089;43.538;5.250;2023-02-11T11:01:41;11.30;99.90
16289;DHT22;26089;43.538;5.250;2023-02-11T11:07:12;11.50;99.90
16289;DHT22;26089;43.538;5.250;2023-02-11T11:09:48;11.80;99.90
16289;DHT22;26089;43.538;5.250;2023-02-11T11:12:27;12.00;99.90
16289;DHT22;26089;43.538;5.250;2023-02-11T11:14:56;12.40;99.90
16289;DHT22;26089;43.538;5.250;2023-02-11T11:17:23;12.40;99.90
16289;DHT22;26089;43.538;5.250;2023-02-11T11:20:08;12.60;99.90
16289;DHT22;26089;43.538;5.250;2023-02-11T11:22:39;12.70;99.90
16289;DHT22;26089;43.538;5.250;2023-02-11T11:25:22;12.50;99.90
16289;DHT22;26089;43.538;5.250;2023-02-11T11:27:50;12.60;99.90
16289;DHT22;26089;43.538;5.250;2023-02-11T11:30:18;12.80;99.90
16289;DHT22;26089;43.538;5.250;2023-02-11T11:32:46;13.20;99.90
16289;DHT22;26089;43.538;5.250;2023-02-11T11:35:26;13.70;99.90
16289;DHT22;26089;43.538;5.250;2023-02-11T11:37:56;14.60;99.90
16289;DHT22;26089;43.538;5.250;2023-02-11T11:40:27;15.10;99.90
16289;DHT22;26089;43.538;5.250;2023-02-11T11:43:13;15.50;99.90
16289;DHT22;26089;43.538;5.250;2023-02-11T11:45:53;15.90;99.90
16289;DHT22;26089;43.538;5.250;2023-02-11T11:48:24;16.60;99.90
16289;DHT22;26089;43.538;5.250;2023-02-11T11:50:55;16.40;99.90
16289;DHT22;26089;43.538;5.250;2023-02-11T11:53:28;16.60;99.90
16289;DHT22;26089;43.538;5.250;2023-02-11T11:56:03;16.90;99.90
16289;DHT22;26089;43.538;5.250;2023-02-11T11:58:32;17.00;99.90
16289;DHT22;26089;43.538;5.250;2023-02-11T12:01:08;17.10;99.90
16289;DHT22;26089;43.538;5.250;2023-02-11T12:06:52;17.10;99.90
16289;DHT22;26089;43.538;5.250;2023-02-11T12:09:29;17.10;99.90
16289;DHT22;26089;43.538;5.250;2023-02-11T12:12:25;17.20;99.90
16289;DHT22;26089;43.538;5.250;2023-02-11T12:15:07;17.40;99.90
16289;DHT22;26089;43.538;5.250;2023-02-11T12:17:50;17.60;99.90
16289;DHT22;26089;43.538;5.250;2023-02-11T12:20:25;17.30;99.90
16289;DHT22;26089;43.538;5.250;2023-02-11T12:25:54;17.30;99.90
16289;DHT22;26089;43.538;5.250;2023-02-11T12:28:30;17.20;99.90
16289;DHT22;26089;43.538;5.250;2023-02-11T12:31:11;17.60;99.90
16289;DHT22;26089;43.538;5.250;2023-02-11T12:34:03;17.70;99.90
16289;DHT22;26089;43.538;5.250;2023-02-11T12:36:48;17.60;99.90
16289;DHT22;26089;43.538;5.250;2023-02-11T12:39:26;17.80;99.90
16289;DHT22;26089;43.538;5.250;2023-02-11T12:45:20;17.90;99.90
16289;DHT22;26089;43.538;5.250;2023-02-11T12:48:02;18.20;99.90
16289;DHT22;26089;43.538;5.250;2023-02-11T12:50:41;17.30;99.90
16289;DHT22;26089;43.538;5.250;2023-02-11T12:53:23;17.30;99.90
16289;DHT22;26089;43.538;5.250;2023-02-11T12:55:57;17.40;99.90
16289;DHT22;26089;43.538;5.250;2023-02-11T12:58:28;17.60;99.90
16289;DHT22;26089;43.538;5.250;2023-02-11T13:01:02;17.60;99.90
16289;DHT22;26089;43.538;5.250;2023-02-11T13:03:36;17.30;99.90
16289;DHT22;26089;43.538;5.250;2023-02-11T13:06:07;16.80;99.90
16289;DHT22;26089;43.538;5.250;2023-02-11T13:08:39;17.10;99.90
16289;DHT22;26089;43.538;5.250;2023-02-11T13:11:08;17.00;99.90
16289;DHT22;26089;43.538;5.250;2023-02-11T13:13:47;17.00;99.90
16289;DHT22;26089;43.538;5.250;2023-02-11T13:16:22;17.10;99.90
16289;DHT22;26089;43.538;5.250;2023-02-11T13:18:56;16.90;99.90
16289;DHT22;26089;43.538;5.250;2023-02-11T13:21:33;17.10;99.90
16289;DHT22;26089;43.538;5.250;2023-02-11T13:24:11;17.10;99.90
16289;DHT22;26089;43.538;5.250;2023-02-11T13:26:46;17.30;99.90
16289;DHT22;26089;43.538;5.250;2023-02-11T13:29:22;17.30;99.90
16289;DHT22;26089;43.538;5.250;2023-02-11T13:31:54;17.40;99.90
16289;DHT22;26089;43.538;5.250;2023-02-11T13:34:26;17.30;99.90
16289;DHT22;26089;43.538;5.250;2023-02-11T13:37:19;17.70;99.90
16289;DHT22;26089;43.538;5.250;2023-02-11T13:39:55;18.10;99.90
16289;DHT22;26089;43.538;5.250;2023-02-11T13:42:23;18.10;99.90
16289;DHT22;26089;43.538;5.250;2023-02-11T13:44:50;18.30;99.90
16289;DHT22;26089;43.538;5.250;2023-02-11T13:47:25;18.50;99.90
16289;DHT22;26089;43.538;5.250;2023-02-11T13:49:54;18.00;99.90
16289;DHT22;26089;43.538;5.250;2023-02-11T13:52:23;18.00;99.90
16289;DHT22;26089;43.538;5.250;2023-02-11T13:54:53;18.10;99.90
16289;DHT22;26089;43.538;5.250;2023-02-11T13:57:36;18.40;99.90
16289;DHT22;26089;43.538;5.250;2023-02-11T14:03:32;18.10;99.90
16289;DHT22;26089;43.538;5.250;2023-02-11T14:06:20;18.10;99.90
16289;DHT22;26089;43.538;5.250;2023-02-11T14:09:33;17.60;99.90
16289;DHT22;26089;43.538;5.250;2023-02-11T14:12:32;17.60;99.90
16289;DHT22;26089;43.538;5.250;2023-02-11T14:18:01;17.30;99.90
16289;DHT22;26089;43.538;5.250;2023-02-11T14:20:36;16.80;99.90
16289;DHT22;26089;43.538;5.250;2023-02-11T14:23:05;16.60;99.90
16289;DHT22;26089;43.538;5.250;2023-02-11T14:25:33;16.30;99.90
16289;DHT22;26089;43.538;5.250;2023-02-11T14:28:06;15.90;99.90
16289;DHT22;26089;43.538;5.250;2023-02-11T14:30:45;15.70;99.90
16289;DHT22;26089;43.538;5.250;2023-02-11T14:33:43;15.70;99.90
16289;DHT22;26089;43.538;5.250;2023-02-11T14:36:29;15.90;99.90
16289;DHT22;26089;43.538;5.250;2023-02-11T14:39:07;16.00;99.90
16289;DHT22;26089;43.538;5.250;2023-02-11T14:41:39;15.90;99.90
16289;DHT22;26089;43.538;5.250;2023-02-11T14:44:13;15.70;99.90
16289;DHT22;26089;43.538;5.250;2023-02-11T14:46:44;15.50;99.90
16289;DHT22;26089;43.538;5.250;2023-02-11T14:49:20;15.10;99.90
16289;DHT22;26089;43.538;5.250;2023-02-11T14:51:52;15.10;99.90
16289;DHT22;26089;43.538;5.250;2023-02-11T14:54:21;15.10;99.90
16289;DHT22;26089;43.538;5.250;2023-02-11T14:57:05;14.90;99.90
16289;DHT22;26089;43.538;5.250;2023-02-11T14:59:33;14.70;99.90
16289;DHT22;26089;43.538;5.250;2023-02-11T15:02:00;14.50;99.90
16289;DHT22;26089;43.538;5.250;2023-02-11T15:04:29;14.50;99.90
16289;DHT22;26089;43.538;5.250;2023-02-11T15:07:03;14.60;99.90
16289;DHT22;26089;43.538;5.250;2023-02-11T15:09:36;14.50;99.90
16289;DHT22;26089;43.538;5.250;2023-02-11T15:12:08;14.40;99.90
16289;DHT22;26089;43.538;5.250;2023-02-11T15:14:45;14.00;99.90
16289;DHT22;26089;43.538;5.250;2023-02-11T15:17:16;14.00;99.90
16289;DHT22;26089;43.538;5.250;2023-02-11T15:19:46;14.00;99.90
16289;DHT22;26089;43.538;5.250;2023-02-11T15:22:20;13.90;99.90
16289;DHT22;26089;43.538;5.250;2023-02-11T15:24:58;13.90;99.90
16289;DHT22;26089;43.538;5.250;2023-02-11T15:27:26;13.80;99.90
16289;DHT22;26089;43.538;5.250;2023-02-11T15:29:53;13.70;99.90
16289;DHT22;26089;43.538;5.250;2023-02-11T15:32:21;13.60;99.90
16289;DHT22;26089;43.538;5.250;2023-02-11T15:34:50;13.70;99.90
16289;DHT22;26089;43.538;5.250;2023-02-11T15:37:21;13.60;99.90
16289;DHT22;26089;43.538;5.250;2023-02-11T15:39:50;13.70;99.90
16289;DHT22;26089;43.538;5.250;2023-02-11T15:42:20;13.60;99.90
16289;DHT22;26089;43.538;5.250;2023-02-11T15:44:49;13.50;99.90
16289;DHT22;26089;43.538;5.250;2023-02-11T15:47:33;13.50;99.90
16289;DHT22;26089;43.538;5.250;2023-02-11T15:50:01;13.40;99.90
16289;DHT22;26089;43.538;5.250;2023-02-11T15:52:30;13.40;99.90
16289;DHT22;26089;43.538;5.250;2023-02-11T15:54:59;13.30;99.90
16289;DHT22;26089;43.538;5.250;2023-02-11T15:57:27;13.10;99.90
16289;DHT22;26089;43.538;5.250;2023-02-11T15:59:55;12.90;99.90
16289;DHT22;26089;43.538;5.250;2023-02-11T16:02:28;12.80;99.90
16289;DHT22;26089;43.538;5.250;2023-02-11T16:04:57;12.60;99.90
16289;DHT22;26089;43.538;5.250;2023-02-11T16:07:40;12.50;99.90
16289;DHT22;26089;43.538;5.250;2023-02-11T16:10:22;12.50;99.90
16289;DHT22;26089;43.538;5.250;2023-02-11T16:12:52;12.50;99.90
16289;DHT22;26089;43.538;5.250;2023-02-11T16:15:42;12.40;99.90
16289;DHT22;26089;43.538;5.250;2023-02-11T16:18:19;12.20;99.90
16289;DHT22;26089;43.538;5.250;2023-02-11T16:20:49;12.10;99.90
16289;DHT22;26089;43.538;5.250;2023-02-11T16:23:21;12.00;99.90
16289;DHT22;26089;43.538;5.250;2023-02-11T16:25:56;11.90;99.90